Time;durP1;ratioP1;P1;durP2;ratioP2;P2;SDS_P1;SDS_P2;PMS_P1;PMS_P2;Temp;Humidity;BMP_temperature;BMP_pressure;BME280_temperature;BME280_humidity;BME280_pressure;Samples;Min_cycle;Max_cycle;Signal;HPM_P1;HPM_P2
2022/08/21 00:01:22;;;;;;;7.40;3.10;;;17.80;86.00;;;;;;5063067;28;20041;-90
2022/08/21 00:03:47;;;;;;;9.30;3.72;;;17.70;86.20;;;;;;5081528;28;20047;-91
2022/08/21 00:06:14;;;;;;;8.85;3.92;;;17.60;86.30;;;;;;5085842;28;20021;-91
2022/08/21 00:08:40;;;;;;;9.32;4.13;;;17.60;86.50;;;;;;5081362;28;20468;-89
2022/08/21 00:11:06;;;;;;;10.23;3.83;;;17.50;86.70;;;;;;5070050;28;20062;-88
2022/08/21 00:13:32;;;;;;;12.10;3.58;;;17.40;86.80;;;;;;5081366;28;20483;-89
2022/08/21 00:15:59;;;;;;;5.90;3.25;;;17.40;87.20;;;;;;5077226;28;20131;-90
2022/08/21 00:18:25;;;;;;;7.95;3.17;;;17.30;87.50;;;;;;5076001;28;20456;-86
2022/08/21 00:20:51;;;;;;;7.55;2.90;;;17.30;87.70;;;;;;5075181;28;20025;-89
2022/08/21 00:23:17;;;;;;;9.23;3.22;;;17.20;87.90;;;;;;5074725;28;20048;-90
2022/08/21 00:25:43;;;;;;;8.23;2.95;;;17.20;88.00;;;;;;5076086;28;20031;-92
2022/08/21 00:28:10;;;;;;;4.70;2.85;;;17.10;88.10;;;;;;5074847;28;20020;-92
2022/08/21 00:30:36;;;;;;;8.00;2.83;;;17.10;88.20;;;;;;5075996;28;20024;-92
2022/08/21 00:33:02;;;;;;;6.35;3.20;;;17.10;88.30;;;;;;5075984;28;20473;-89
2022/08/21 00:35:33;;;;;;;7.57;3.13;;;17.00;88.40;;;;;;5074824;28;20024;-89
2022/08/21 00:37:59;;;;;;;4.68;2.72;;;17.00;88.70;;;;;;5074340;28;20028;-91
2022/08/21 00:40:40;;;;;;;6.97;3.20;;;17.00;88.90;;;;;;5075714;28;20024;-92
2022/08/21 00:43:07;;;;;;;8.77;3.13;;;16.90;89.10;;;;;;5074459;28;20032;-89
2022/08/21 00:45:34;;;;;;;6.78;2.85;;;16.90;89.30;;;;;;5073884;28;20040;-90
2022/08/21 00:48:00;;;;;;;6.80;2.88;;;16.90;89.50;;;;;;5074100;28;20024;-89
2022/08/21 00:50:31;;;;;;;7.65;3.22;;;16.80;89.70;;;;;;5073875;28;20032;-89
2022/08/21 00:52:58;;;;;;;5.13;2.92;;;16.80;89.90;;;;;;5074197;28;20032;-88
2022/08/21 00:55:24;;;;;;;7.25;2.90;;;16.80;90.00;;;;;;5073016;28;20558;-88
2022/08/21 00:57:56;;;;;;;9.75;3.03;;;16.80;90.00;;;;;;5056793;28;20040;-89
2022/08/21 01:00:28;;;;;;;7.28;2.90;;;16.80;90.10;;;;;;5074687;28;20473;-89
2022/08/21 01:02:54;;;;;;;8.05;3.20;;;16.80;90.10;;;;;;5073634;28;20025;-88
2022/08/21 01:05:20;;;;;;;10.43;3.30;;;16.70;90.10;;;;;;5073770;28;20423;-88
2022/08/21 01:07:46;;;;;;;9.10;3.92;;;16.80;90.20;;;;;;5057097;28;20025;-89
2022/08/21 01:10:13;;;;;;;12.07;3.95;;;16.80;90.30;;;;;;5057275;28;20032;-89
2022/08/21 01:12:39;;;;;;;7.35;3.95;;;16.70;90.40;;;;;;5074873;28;20523;-89
2022/08/21 01:15:11;;;;;;;8.20;3.97;;;16.70;90.50;;;;;;5074021;28;20021;-89
2022/08/21 01:17:37;;;;;;;7.55;3.55;;;16.70;90.50;;;;;;5074834;28;20468;-88
2022/08/21 01:20:07;;;;;;;9.15;3.30;;;16.70;90.60;;;;;;5073593;28;20056;-89
2022/08/21 01:22:33;;;;;;;8.52;3.60;;;16.70;90.70;;;;;;5074905;28;20481;-89
2022/08/21 01:24:59;;;;;;;6.72;3.00;;;16.70;90.80;;;;;;5073268;28;20020;-88
2022/08/21 01:27:24;;;;;;;6.90;2.88;;;16.70;90.90;;;;;;5056962;28;20376;-89
2022/08/21 01:29:59;;;;;;;6.78;3.00;;;16.60;91.00;;;;;;5074609;28;20036;-89
2022/08/21 01:32:25;;;;;;;12.13;3.65;;;16.60;91.10;;;;;;5073208;28;20036;-89
2022/08/21 01:34:52;;;;;;;8.02;3.40;;;16.60;91.20;;;;;;5073381;28;20021;-90
2022/08/21 01:37:19;;;;;;;8.68;4.07;;;16.60;91.30;;;;;;5073347;28;20032;-91
2022/08/21 01:39:45;;;;;;;7.25;3.65;;;16.60;91.30;;;;;;5074351;28;20032;-89
2022/08/21 01:42:12;;;;;;;7.10;3.67;;;16.60;91.30;;;;;;5072977;28;20051;-88
2022/08/21 01:44:37;;;;;;;8.65;4.68;;;16.60;91.40;;;;;;5073455;28;20082;-89
2022/08/21 01:47:06;;;;;;;9.15;4.45;;;16.60;91.40;;;;;;5052909;28;20033;-89
2022/08/21 01:49:31;;;;;;;10.70;4.03;;;16.60;91.50;;;;;;5052861;28;20136;-89
2022/08/21 01:51:57;;;;;;;11.27;4.53;;;16.60;91.50;;;;;;5035409;28;20611;-90
2022/08/21 01:54:23;;;;;;;9.82;5.28;;;16.60;91.50;;;;;;5050454;28;20113;-89
2022/08/21 01:56:52;;;;;;;7.47;3.65;;;16.60;91.60;;;;;;5053192;28;20056;-92
2022/08/21 01:59:17;;;;;;;8.57;4.22;;;16.60;91.60;;;;;;5052822;28;20028;-92
2022/08/21 02:01:43;;;;;;;10.25;4.32;;;16.60;91.60;;;;;;5036238;28;20033;-90
2022/08/21 02:04:10;;;;;;;9.88;4.85;;;16.60;91.60;;;;;;5053070;28;20032;-88
2022/08/21 02:06:36;;;;;;;9.70;4.72;;;16.50;91.60;;;;;;5053040;28;20023;-89
2022/08/21 02:09:04;;;;;;;8.25;4.55;;;16.50;91.70;;;;;;5036487;28;20528;-89
2022/08/21 02:11:30;;;;;;;8.77;3.97;;;16.50;91.70;;;;;;5053904;28;20037;-88
2022/08/21 02:13:56;;;;;;;9.13;4.93;;;16.50;91.80;;;;;;5036415;28;20033;-89
2022/08/21 02:16:21;;;;;;;10.88;4.65;;;16.50;91.90;;;;;;5020985;28;20028;-86
2022/08/21 02:18:47;;;;;;;7.20;4.43;;;16.50;91.90;;;;;;5036976;28;20040;-89
2022/08/21 02:21:12;;;;;;;8.30;4.40;;;16.50;92.00;;;;;;5054055;28;20036;-90
2022/08/21 02:23:38;;;;;;;9.15;4.47;;;16.50;92.00;;;;;;5053094;28;20091;-90
2022/08/21 02:26:06;;;;;;;10.85;4.47;;;16.50;92.10;;;;;;5036545;28;20116;-90
2022/08/21 02:28:33;;;;;;;7.32;4.13;;;16.50;92.10;;;;;;5053342;28;20116;-87
2022/08/21 02:30:59;;;;;;;11.38;4.93;;;16.50;92.10;;;;;;5053544;28;20115;-91
2022/08/21 02:33:25;;;;;;;10.57;4.82;;;16.40;92.10;;;;;;5053015;28;20029;-90
2022/08/21 02:35:52;;;;;;;11.52;4.80;;;16.40;92.00;;;;;;5052739;28;20025;-91
2022/08/21 02:38:24;;;;;;;8.07;3.75;;;16.40;92.00;;;;;;5052610;28;20504;-89
2022/08/21 02:40:51;;;;;;;10.27;4.22;;;16.30;92.10;;;;;;5052433;28;20021;-92
2022/08/21 02:43:18;;;;;;;9.23;3.88;;;16.30;92.20;;;;;;5053677;28;20029;-88
2022/08/21 02:45:45;;;;;;;7.60;4.05;;;16.30;92.30;;;;;;5036517;28;20059;-90
2022/08/21 02:48:14;;;;;;;8.73;5.07;;;16.30;92.30;;;;;;5052543;28;20025;-90
2022/08/21 02:50:51;;;;;;;9.95;4.28;;;16.20;92.40;;;;;;5053754;28;20029;-89
2022/08/21 02:53:17;;;;;;;8.23;4.28;;;16.30;92.40;;;;;;5052959;28;20032;-87
2022/08/21 02:55:48;;;;;;;8.52;3.90;;;16.20;92.50;;;;;;5051897;28;20049;-90
2022/08/21 02:58:17;;;;;;;10.15;4.82;;;16.20;92.60;;;;;;5052471;28;20377;-88
2022/08/21 03:00:43;;;;;;;11.40;5.43;;;16.10;92.60;;;;;;5052816;28;20492;-91
2022/08/21 03:03:10;;;;;;;12.18;6.03;;;16.10;92.70;;;;;;5035922;28;20045;-90
2022/08/21 03:05:39;;;;;;;8.77;4.80;;;16.10;92.70;;;;;;5055401;28;20109;-89
2022/08/21 03:08:11;;;;;;;13.80;6.63;;;16.10;92.70;;;;;;5046580;28;20053;-90
2022/08/21 03:10:39;;;;;;;11.77;5.53;;;16.10;92.70;;;;;;5059374;28;20052;-93
2022/08/21 03:13:05;;;;;;;9.98;5.28;;;16.10;92.70;;;;;;5060024;28;20066;-90
2022/08/21 03:15:32;;;;;;;9.48;5.70;;;16.00;92.70;;;;;;5065438;28;20025;-89
2022/08/21 03:17:58;;;;;;;8.57;5.10;;;16.00;92.80;;;;;;5047912;28;20036;-89
2022/08/21 03:20:26;;;;;;;13.57;6.10;;;16.00;92.90;;;;;;5059803;28;20033;-89
2022/08/21 03:22:53;;;;;;;10.98;5.63;;;16.00;92.90;;;;;;5045921;28;20166;-92
2022/08/21 03:25:23;;;;;;;13.23;6.32;;;16.00;93.00;;;;;;5066892;28;20029;-91
2022/08/21 03:27:49;;;;;;;11.77;6.53;;;16.00;93.10;;;;;;5056584;28;20492;-91
2022/08/21 03:30:17;;;;;;;10.02;5.55;;;15.90;93.20;;;;;;5061178;28;20108;-88
2022/08/21 03:32:43;;;;;;;11.88;6.68;;;16.00;93.20;;;;;;5059836;28;20060;-90
2022/08/21 03:35:09;;;;;;;10.73;6.05;;;15.90;93.20;;;;;;5057125;28;20469;-90
2022/08/21 03:37:35;;;;;;;10.90;5.28;;;15.90;93.30;;;;;;5056080;28;20033;-88
2022/08/21 03:40:05;;;;;;;10.02;6.00;;;15.90;93.30;;;;;;5055680;28;20139;-90
2022/08/21 03:42:31;;;;;;;11.10;6.47;;;15.80;93.30;;;;;;5055879;28;20025;-90
2022/08/21 03:44:56;;;;;;;12.82;5.93;;;15.80;93.30;;;;;;5055557;28;20033;-89
2022/08/21 03:47:22;;;;;;;10.05;6.80;;;15.80;93.30;;;;;;5055236;28;20057;-89
2022/08/21 03:49:48;;;;;;;14.52;7.38;;;15.70;93.30;;;;;;5055134;28;20063;-90
2022/08/21 03:52:13;;;;;;;11.23;7.07;;;15.70;93.40;;;;;;5055545;28;20040;-90
2022/08/21 03:54:41;;;;;;;11.95;7.45;;;15.70;93.40;;;;;;5055098;28;20835;-91
2022/08/21 03:57:08;;;;;;;13.43;6.97;;;15.70;93.50;;;;;;5055089;28;20025;-88
2022/08/21 03:59:34;;;;;;;10.23;6.95;;;15.70;93.60;;;;;;5022152;28;20036;-90
2022/08/21 04:02:03;;;;;;;14.40;7.25;;;15.60;93.60;;;;;;5054899;28;20469;-89
2022/08/21 04:04:29;;;;;;;11.02;6.32;;;15.60;93.60;;;;;;5056225;28;20032;-92
2022/08/21 04:06:56;;;;;;;12.52;6.88;;;15.60;93.70;;;;;;5055253;28;20028;-89
2022/08/21 04:09:22;;;;;;;12.35;7.13;;;15.60;93.80;;;;;;5055395;28;20033;-88
2022/08/21 04:11:48;;;;;;;14.63;7.88;;;15.60;93.80;;;;;;5054766;28;20040;-91
2022/08/21 04:14:15;;;;;;;13.32;8.27;;;15.60;93.90;;;;;;5056319;28;20039;-93
2022/08/21 04:16:41;;;;;;;12.23;7.28;;;15.60;94.00;;;;;;5057333;28;20032;-90
2022/08/21 04:19:08;;;;;;;14.32;7.75;;;15.60;94.10;;;;;;5072925;28;20037;-88
2022/08/21 04:21:36;;;;;;;17.35;7.97;;;15.50;94.10;;;;;;5082241;28;20111;-90
2022/08/21 04:24:02;;;;;;;16.35;8.00;;;15.60;94.20;;;;;;5080362;28;20461;-90
2022/08/21 04:26:27;;;;;;;16.27;7.22;;;15.60;94.20;;;;;;5073940;28;20066;-88
2022/08/21 04:28:55;;;;;;;13.75;7.25;;;15.50;94.30;;;;;;5078376;28;20016;-89
2022/08/21 04:31:21;;;;;;;14.93;7.80;;;15.50;94.40;;;;;;5075354;28;20124;-90
2022/08/21 04:33:47;;;;;;;13.57;8.10;;;15.50;94.40;;;;;;5058487;28;20064;-89
2022/08/21 04:36:12;;;;;;;16.08;7.75;;;15.60;94.50;;;;;;5075552;28;20075;-81
2022/08/21 04:38:38;;;;;;;12.90;9.07;;;15.50;94.50;;;;;;5073104;28;20086;-80
2022/08/21 04:41:05;;;;;;;11.77;7.50;;;15.50;94.60;;;;;;5073019;28;20090;-81
2022/08/21 04:43:30;;;;;;;12.18;7.38;;;15.50;94.70;;;;;;5060219;28;20443;-81
2022/08/21 04:45:56;;;;;;;13.07;7.63;;;15.50;94.70;;;;;;5070621;28;20086;-80
2022/08/21 04:48:23;;;;;;;12.50;7.70;;;15.60;94.70;;;;;;5055064;28;20033;-79
2022/08/21 04:50:59;;;;;;;12.60;7.00;;;15.60;94.70;;;;;;5073250;28;20016;-80
2022/08/21 04:53:41;;;;;;;10.05;6.15;;;15.60;94.70;;;;;;5071908;28;20031;-80
2022/08/21 04:56:15;;;;;;;12.57;6.80;;;15.60;94.70;;;;;;5070762;28;20131;-80
2022/08/21 04:58:42;;;;;;;12.38;7.05;;;15.60;94.70;;;;;;5071348;28;20487;-81
2022/08/21 05:01:13;;;;;;;12.25;7.10;;;15.60;94.70;;;;;;5072390;28;20514;-81
2022/08/21 05:03:40;;;;;;;14.20;8.18;;;15.50;94.70;;;;;;5073535;28;20032;-81
2022/08/21 05:06:10;;;;;;;12.75;8.35;;;15.50;94.70;;;;;;5073147;28;20024;-81
2022/08/21 05:08:38;;;;;;;11.82;8.05;;;15.60;94.90;;;;;;5073222;28;20073;-81
2022/08/21 05:11:04;;;;;;;13.63;8.32;;;15.60;94.90;;;;;;5075895;28;20089;-81
2022/08/21 05:13:30;;;;;;;13.90;9.00;;;15.60;95.00;;;;;;5074957;28;20033;-81
2022/08/21 05:15:56;;;;;;;14.77;8.57;;;15.60;95.00;;;;;;5076080;28;20497;-80
2022/08/21 05:18:21;;;;;;;15.63;8.10;;;15.60;95.10;;;;;;5074294;28;20155;-81
2022/08/21 05:20:47;;;;;;;11.80;7.63;;;15.60;95.10;;;;;;5072922;28;20028;-81
2022/08/21 05:23:14;;;;;;;10.60;7.30;;;15.70;95.10;;;;;;5072863;28;20036;-81
2022/08/21 05:25:40;;;;;;;9.95;6.45;;;15.60;95.10;;;;;;5073283;28;20035;-81
2022/08/21 05:28:06;;;;;;;12.07;7.25;;;15.70;95.10;;;;;;5072205;28;20028;-81
2022/08/21 05:30:32;;;;;;;10.75;5.88;;;15.70;95.10;;;;;;5072781;28;20020;-81
2022/08/21 05:33:00;;;;;;;11.57;6.47;;;15.70;95.10;;;;;;5073241;28;20082;-81
2022/08/21 05:35:27;;;;;;;9.93;6.75;;;15.70;95.10;;;;;;5073285;28;20031;-81
2022/08/21 05:37:52;;;;;;;11.98;6.80;;;15.80;95.10;;;;;;5071907;28;20024;-81
2022/08/21 05:40:18;;;;;;;11.60;6.57;;;15.70;95.10;;;;;;5073028;28;20035;-81
2022/08/21 05:42:44;;;;;;;12.70;6.93;;;15.80;95.20;;;;;;5072090;28;20127;-82
2022/08/21 05:45:10;;;;;;;10.30;7.10;;;15.80;95.10;;;;;;5055533;28;20071;-82
2022/08/21 05:47:36;;;;;;;13.95;6.65;;;15.80;95.10;;;;;;5055470;28;20064;-82
2022/08/21 05:50:02;;;;;;;12.80;7.80;;;15.80;95.20;;;;;;5055197;28;20033;-82
2022/08/21 05:52:28;;;;;;;13.07;8.93;;;15.80;95.20;;;;;;5071200;28;20188;-82
2022/08/21 05:54:54;;;;;;;12.18;8.45;;;15.80;95.20;;;;;;5054784;28;20070;-82
2022/08/21 05:57:21;;;;;;;13.48;9.27;;;15.80;95.20;;;;;;5055243;28;20028;-82
2022/08/21 05:59:47;;;;;;;14.13;9.27;;;15.80;95.30;;;;;;5071718;28;20021;-82
2022/08/21 06:02:12;;;;;;;15.18;10.18;;;15.80;95.30;;;;;;5073014;28;20028;-82
2022/08/21 06:04:39;;;;;;;15.30;9.32;;;15.80;95.30;;;;;;5048028;28;20048;-82
2022/08/21 06:07:05;;;;;;;15.18;10.10;;;15.90;95.30;;;;;;5062204;28;20035;-82
2022/08/21 06:09:32;;;;;;;18.05;10.50;;;15.80;95.20;;;;;;5060529;28;20020;-82
2022/08/21 06:11:57;;;;;;;15.07;10.10;;;15.80;95.20;;;;;;5056568;28;20048;-82
2022/08/21 06:14:23;;;;;;;13.65;9.73;;;15.90;95.30;;;;;;5052769;28;20033;-82
2022/08/21 06:16:49;;;;;;;16.33;10.63;;;15.90;95.30;;;;;;5035116;28;20032;-82
2022/08/21 06:19:14;;;;;;;14.95;9.38;;;15.90;95.30;;;;;;5018293;28;20037;-81
2022/08/21 06:21:40;;;;;;;14.00;8.77;;;15.90;95.30;;;;;;5034631;28;20029;-82
2022/08/21 06:24:06;;;;;;;14.57;8.38;;;16.00;95.30;;;;;;5051702;28;20033;-82
2022/08/21 06:26:32;;;;;;;14.77;8.38;;;16.00;95.40;;;;;;5051961;28;20469;-82
2022/08/21 06:28:58;;;;;;;13.80;8.95;;;16.00;95.30;;;;;;5051208;28;20025;-82
2022/08/21 06:31:26;;;;;;;14.63;9.13;;;16.00;95.50;;;;;;5052288;28;20045;-82
2022/08/21 06:33:52;;;;;;;13.38;7.43;;;16.10;95.50;;;;;;5051519;28;20116;-82
2022/08/21 06:36:19;;;;;;;13.13;7.57;;;16.10;95.40;;;;;;5052469;28;20103;-81
2022/08/21 06:38:45;;;;;;;13.45;8.55;;;16.10;95.50;;;;;;5051581;28;20429;-82
2022/08/21 06:41:11;;;;;;;16.40;8.70;;;16.10;95.50;;;;;;5036828;28;20124;-82
2022/08/21 06:43:37;;;;;;;14.45;8.30;;;16.10;95.50;;;;;;5055502;28;20223;-82
2022/08/21 06:46:03;;;;;;;18.67;9.45;;;16.20;95.60;;;;;;5056709;28;20117;-82
2022/08/21 06:48:31;;;;;;;16.88;8.55;;;16.20;95.50;;;;;;5055395;28;20544;-82
2022/08/21 06:50:59;;;;;;;15.38;8.73;;;16.20;95.50;;;;;;5051693;28;20485;-82
2022/08/21 06:53:25;;;;;;;11.73;8.02;;;16.30;95.60;;;;;;5058545;28;20388;-82
2022/08/21 06:55:51;;;;;;;17.02;8.05;;;16.20;95.60;;;;;;5074391;28;20483;-82
2022/08/21 06:58:17;;;;;;;12.77;7.80;;;16.30;95.70;;;;;;5043453;28;20058;-82
2022/08/21 07:00:46;;;;;;;18.17;8.27;;;16.30;95.80;;;;;;5055966;28;20033;-82
2022/08/21 07:03:22;;;;;;;15.32;7.88;;;16.40;95.90;;;;;;5056486;28;20035;-81
2022/08/21 07:05:48;;;;;;;13.55;7.60;;;16.40;95.90;;;;;;5062883;28;20475;-82
2022/08/21 07:08:13;;;;;;;12.38;7.10;;;16.50;95.80;;;;;;5038326;28;20031;-81
2022/08/21 07:10:39;;;;;;;15.20;7.85;;;16.50;95.80;;;;;;5054719;28;20033;-82
2022/08/21 07:13:05;;;;;;;17.75;8.00;;;16.50;96.00;;;;;;5055817;28;20040;-82
2022/08/21 07:15:30;;;;;;;15.63;7.72;;;16.60;96.10;;;;;;5038080;28;20053;-82
2022/08/21 07:18:00;;;;;;;17.27;6.90;;;16.70;96.10;;;;;;5054455;28;20048;-82
2022/08/21 07:20:30;;;;;;;13.88;7.03;;;16.70;96.00;;;;;;5054421;28;20017;-82
2022/08/21 07:22:59;;;;;;;15.98;6.47;;;16.80;96.10;;;;;;5054507;28;20075;-82
2022/08/21 07:25:25;;;;;;;16.58;7.13;;;16.80;96.00;;;;;;5056894;28;20025;-82
2022/08/21 07:27:51;;;;;;;13.40;6.40;;;16.90;96.00;;;;;;5054566;28;20116;-82
2022/08/21 07:30:16;;;;;;;15.02;6.10;;;16.90;96.00;;;;;;5074230;28;20068;-82
2022/08/21 07:32:42;;;;;;;17.67;7.22;;;17.00;96.00;;;;;;5075623;28;20098;-82
2022/08/21 07:35:08;;;;;;;16.05;6.63;;;17.10;96.00;;;;;;5065893;28;20043;-82
2022/08/21 07:37:33;;;;;;;15.15;6.35;;;17.20;96.00;;;;;;5042989;28;20123;-82
2022/08/21 07:39:59;;;;;;;16.15;7.38;;;17.30;96.10;;;;;;5037249;28;20021;-82
2022/08/21 07:42:25;;;;;;;12.65;5.57;;;17.30;96.10;;;;;;5054077;28;20029;-81
2022/08/21 07:44:50;;;;;;;12.63;5.53;;;17.40;96.10;;;;;;5055405;28;20029;-84
2022/08/21 07:47:16;;;;;;;13.50;5.10;;;17.50;96.10;;;;;;5038954;28;20033;-91
2022/08/21 07:49:41;;;;;;;16.08;5.93;;;17.60;96.00;;;;;;5055300;28;20044;-90
2022/08/21 07:52:07;;;;;;;14.35;5.57;;;17.70;96.20;;;;;;5037898;28;20067;-89
2022/08/21 07:54:33;;;;;;;12.45;5.05;;;17.70;95.90;;;;;;5055133;28;20155;-91
2022/08/21 07:56:59;;;;;;;13.20;5.85;;;17.80;96.00;;;;;;5039632;28;20025;-88
2022/08/21 07:59:24;;;;;;;12.65;6.32;;;17.80;96.00;;;;;;5062324;28;20040;-89
2022/08/21 08:01:50;;;;;;;11.98;5.18;;;17.90;95.90;;;;;;5075619;28;20029;-91
2022/08/21 08:04:16;;;;;;;10.68;4.53;;;17.90;95.90;;;;;;5074799;28;20438;-90
2022/08/21 08:06:42;;;;;;;15.18;5.88;;;17.90;95.80;;;;;;5058185;28;20436;-89
2022/08/21 08:09:07;;;;;;;13.23;4.72;;;18.00;95.80;;;;;;5058755;28;20021;-91
2022/08/21 08:11:33;;;;;;;15.20;5.28;;;18.00;95.80;;;;;;5076873;28;20094;-91
2022/08/21 08:13:59;;;;;;;12.15;5.15;;;18.10;95.80;;;;;;5076624;28;20048;-90
2022/08/21 08:16:25;;;;;;;12.45;4.82;;;18.20;95.80;;;;;;5078089;28;20036;-91
2022/08/21 08:18:51;;;;;;;14.88;4.78;;;18.20;95.70;;;;;;5078849;28;20028;-91
2022/08/21 08:21:20;;;;;;;13.20;4.78;;;18.30;95.70;;;;;;5063535;28;20047;-88
2022/08/21 08:23:45;;;;;;;11.55;3.88;;;18.40;95.70;;;;;;5073716;28;20570;-87
2022/08/21 08:26:11;;;;;;;14.85;4.32;;;18.50;95.70;;;;;;5074913;28;20020;-87
2022/08/21 08:28:37;;;;;;;12.63;4.38;;;18.60;95.60;;;;;;5088847;28;20017;-89
2022/08/21 08:31:03;;;;;;;9.90;4.03;;;18.70;95.50;;;;;;5080635;28;20103;-89
2022/08/21 08:33:29;;;;;;;8.70;3.83;;;18.80;95.40;;;;;;5081355;28;20039;-92
2022/08/21 08:35:55;;;;;;;12.82;3.28;;;18.80;95.30;;;;;;5080322;28;20029;-91
2022/08/21 08:38:22;;;;;;;11.98;3.55;;;18.90;95.20;;;;;;5074841;28;20048;-91
2022/08/21 08:41:09;;;;;;;10.55;3.92;;;19.00;95.00;;;;;;5075136;28;20032;-88
2022/08/21 08:43:35;;;;;;;13.75;4.03;;;19.10;94.90;;;;;;5076067;28;20016;-91
2022/08/21 08:46:06;;;;;;;10.80;3.88;;;19.10;94.80;;;;;;5074885;28;20051;-91
2022/08/21 08:48:51;;;;;;;16.60;3.97;;;19.20;94.60;;;;;;5075722;28;20020;-92
2022/08/21 08:51:37;;;;;;;11.32;3.58;;;19.30;94.70;;;;;;5075463;28;20059;-93
2022/08/21 08:54:08;;;;;;;13.57;2.95;;;19.40;94.30;;;;;;5076698;28;20025;-89
2022/08/21 08:56:36;;;;;;;11.35;3.42;;;19.50;94.10;;;;;;5078560;28;20045;-92
2022/08/21 08:59:17;;;;;;;9.88;3.20;;;19.50;93.80;;;;;;5075992;28;20135;-91
2022/08/21 09:01:43;;;;;;;7.03;2.58;;;19.60;93.60;;;;;;5079002;28;20021;-89
2022/08/21 09:04:12;;;;;;;14.30;4.00;;;19.70;93.40;;;;;;5064986;28;20024;-89
2022/08/21 09:06:55;;;;;;;12.25;3.38;;;19.80;93.20;;;;;;5077063;28;20460;-91
2022/08/21 09:09:29;;;;;;;8.02;2.80;;;19.80;93.00;;;;;;5075807;28;20020;-90
2022/08/21 09:12:13;;;;;;;9.45;2.15;;;19.90;92.80;;;;;;5075523;28;20097;-92
2022/08/21 09:14:47;;;;;;;11.20;2.30;;;20.00;92.60;;;;;;5075647;28;20040;-91
2022/08/21 09:17:28;;;;;;;8.05;2.08;;;20.10;92.30;;;;;;5078698;28;20480;-90
2022/08/21 09:20:32;;;;;;;8.75;1.98;;;20.20;92.10;;;;;;5077780;28;20047;-91
2022/08/21 09:23:30;;;;;;;8.90;2.10;;;20.30;91.80;;;;;;5037105;28;20035;-91
2022/08/21 09:26:11;;;;;;;8.90;2.58;;;20.30;91.50;;;;;;5052888;28;20484;-91
2022/08/21 09:28:38;;;;;;;6.15;2.10;;;20.40;91.30;;;;;;5070184;28;20063;-90
2022/08/21 09:31:08;;;;;;;8.32;1.80;;;20.50;91.10;;;;;;5074545;28;20086;-90
2022/08/21 09:33:34;;;;;;;7.30;1.67;;;20.60;90.80;;;;;;5074391;28;20025;-92
2022/08/21 09:36:00;;;;;;;7.03;1.90;;;20.70;90.60;;;;;;5074030;28;20036;-89
2022/08/21 09:38:33;;;;;;;6.32;1.70;;;20.80;90.30;;;;;;5073314;28;20104;-91
2022/08/21 09:41:09;;;;;;;8.27;1.52;;;20.90;90.00;;;;;;5073655;28;20034;-93
2022/08/21 09:43:35;;;;;;;9.68;1.98;;;20.90;89.10;;;;;;5075425;28;20020;-91
2022/08/21 09:46:21;;;;;;;5.20;1.45;;;21.00;88.60;;;;;;5077175;28;20050;-91
2022/08/21 09:48:50;;;;;;;7.68;1.45;;;21.10;87.90;;;;;;5072656;28;20025;-88
2022/08/21 09:51:20;;;;;;;5.65;1.25;;;21.20;87.40;;;;;;5073441;28;20040;-91
2022/08/21 09:54:11;;;;;;;7.22;1.52;;;21.30;86.70;;;;;;5073591;28;20029;-91
2022/08/21 09:59:43;;;;;;;7.05;1.08;;;21.50;85.40;;;;;;5078146;28;20063;-92
2022/08/21 10:02:24;;;;;;;7.88;1.35;;;21.60;84.90;;;;;;5077933;28;20033;-88
2022/08/21 10:04:57;;;;;;;7.63;1.73;;;21.70;83.80;;;;;;5075010;28;20029;-91
2022/08/21 10:07:25;;;;;;;5.68;1.00;;;21.80;83.50;;;;;;5074272;28;20365;-93
2022/08/21 10:10:13;;;;;;;8.93;1.00;;;21.80;83.00;;;;;;5074888;28;20058;-93
2022/08/21 10:12:53;;;;;;;7.50;1.08;;;21.90;82.10;;;;;;5073249;28;20427;-89
2022/08/21 10:15:34;;;;;;;6.63;0.90;;;22.10;81.60;;;;;;5074104;28;20025;-91
2022/08/21 10:18:28;;;;;;;6.85;1.33;;;22.20;80.90;;;;;;5073498;28;20081;-89
2022/08/21 10:21:05;;;;;;;6.28;1.00;;;22.30;79.70;;;;;;5073854;28;20025;-92
2022/08/21 10:23:43;;;;;;;6.22;1.15;;;22.50;79.00;;;;;;5074353;28;20043;-91
2022/08/21 10:26:35;;;;;;;5.95;1.38;;;22.60;78.30;;;;;;5073868;28;20149;-93
2022/08/21 10:29:06;;;;;;;4.82;0.98;;;22.70;77.80;;;;;;5067260;28;20029;-92
2022/08/21 10:31:53;;;;;;;4.43;0.88;;;22.90;76.90;;;;;;5079253;28;20047;-92
2022/08/21 10:35:08;;;;;;;3.53;0.60;;;23.10;75.70;;;;;;5084501;28;20028;-90
2022/08/21 10:38:03;;;;;;;4.72;0.63;;;23.30;74.40;;;;;;5060343;28;20043;-91
2022/08/21 10:40:42;;;;;;;6.75;1.25;;;23.60;73.10;;;;;;5074804;28;20041;-93
2022/08/21 10:43:34;;;;;;;5.40;0.75;;;23.80;72.80;;;;;;5076163;28;20056;-91
2022/08/21 10:46:00;;;;;;;3.22;0.80;;;24.00;72.00;;;;;;5082416;28;20028;-90
2022/08/21 10:48:38;;;;;;;7.13;1.00;;;24.20;71.80;;;;;;5081357;28;20024;-91
2022/08/21 10:51:12;;;;;;;6.97;0.80;;;24.40;71.30;;;;;;5082081;28;20487;-93
2022/08/21 10:53:44;;;;;;;6.57;1.00;;;24.50;71.40;;;;;;5079155;28;20021;-93
2022/08/21 10:56:22;;;;;;;4.65;1.10;;;24.60;70.10;;;;;;5076734;28;20055;-93
2022/08/21 10:59:36;;;;;;;5.97;0.90;;;24.70;69.60;;;;;;5074869;28;20032;-92
2022/08/21 11:02:15;;;;;;;4.80;1.03;;;24.80;68.90;;;;;;5068864;28;20137;-93
2022/08/21 11:05:01;;;;;;;5.63;0.88;;;24.90;68.70;;;;;;5072860;28;20677;-92
2022/08/21 11:07:33;;;;;;;5.38;0.80;;;25.10;68.20;;;;;;5074131;28;20059;-92
2022/08/21 11:10:06;;;;;;;7.03;0.90;;;25.30;67.90;;;;;;5073947;28;20096;-90
2022/08/21 11:12:43;;;;;;;5.03;0.73;;;25.50;67.40;;;;;;5072598;28;20056;-92
2022/08/21 11:15:36;;;;;;;6.55;0.82;;;25.60;66.50;;;;;;5072508;28;20079;-93
2022/08/21 11:18:34;;;;;;;5.35;0.90;;;25.80;65.10;;;;;;5074161;28;20028;-92
2022/08/21 11:21:06;;;;;;;9.05;1.10;;;26.10;64.40;;;;;;5072214;28;20484;-91
2022/08/21 11:23:46;;;;;;;4.67;0.73;;;26.40;64.00;;;;;;5072532;28;20028;-93
2022/08/21 11:26:28;;;;;;;6.13;0.70;;;26.50;63.30;;;;;;5072339;28;20029;-90
2022/08/21 11:29:04;;;;;;;4.38;0.90;;;26.70;62.80;;;;;;5084776;28;20075;-93
2022/08/21 11:31:39;;;;;;;5.10;0.80;;;26.80;62.30;;;;;;5082844;28;20130;-90
2022/08/21 11:34:18;;;;;;;4.97;1.00;;;27.00;61.50;;;;;;5087183;28;20488;-89
2022/08/21 11:37:12;;;;;;;6.40;0.98;;;27.20;61.00;;;;;;5079200;28;20060;-91
2022/08/21 11:39:53;;;;;;;3.72;0.80;;;27.40;60.40;;;;;;5076418;28;20021;-90
2022/08/21 11:42:39;;;;;;;4.05;0.70;;;27.80;60.00;;;;;;5079958;28;20104;-89
2022/08/21 11:45:32;;;;;;;4.13;0.70;;;28.10;58.80;;;;;;5082243;28;20089;-91
2022/08/21 11:48:14;;;;;;;5.18;0.85;;;28.30;58.20;;;;;;5087149;28;20032;-92
2022/08/21 11:50:42;;;;;;;3.95;0.73;;;28.50;58.00;;;;;;5078921;28;20077;-91
2022/08/21 11:53:26;;;;;;;3.25;0.63;;;28.80;57.50;;;;;;5078508;28;20029;-92
2022/08/21 11:56:09;;;;;;;4.55;0.70;;;29.10;56.30;;;;;;5078164;28;20040;-90
2022/08/21 11:58:53;;;;;;;3.05;0.70;;;29.30;55.80;;;;;;5076459;28;20024;-90
2022/08/21 12:01:30;;;;;;;7.20;0.95;;;29.60;55.50;;;;;;5076157;28;20028;-89
2022/08/21 12:04:26;;;;;;;4.55;0.80;;;29.90;54.50;;;;;;5075828;28;20032;-91
2022/08/21 12:06:53;;;;;;;6.63;0.80;;;30.20;53.40;;;;;;5074844;28;20039;-90
2022/08/21 12:09:25;;;;;;;3.58;0.80;;;30.40;52.90;;;;;;5076689;28;20048;-91
2022/08/21 12:12:12;;;;;;;5.18;0.73;;;30.60;52.20;;;;;;5074907;28;20051;-90
2022/08/21 12:14:40;;;;;;;5.72;1.10;;;30.80;51.20;;;;;;5076424;28;20100;-94
2022/08/21 12:17:08;;;;;;;5.20;1.00;;;30.90;51.30;;;;;;5076390;28;20017;-92
2022/08/21 12:19:34;;;;;;;3.40;0.60;;;31.00;50.70;;;;;;5075711;28;20027;-92
2022/08/21 12:22:06;;;;;;;2.92;0.70;;;31.20;50.40;;;;;;5075750;28;20029;-92
2022/08/21 12:24:42;;;;;;;6.13;0.90;;;31.30;49.80;;;;;;5074561;28;20388;-89
2022/08/21 12:27:19;;;;;;;5.78;0.90;;;31.50;49.20;;;;;;5075922;28;20021;-87
2022/08/21 12:29:48;;;;;;;7.75;1.13;;;31.50;48.60;;;;;;5074978;28;20027;-90
2022/08/21 12:32:14;;;;;;;4.47;0.80;;;31.50;48.70;;;;;;5075544;28;20052;-92
2022/08/21 12:34:45;;;;;;;3.78;0.70;;;31.50;48.00;;;;;;5077915;28;20029;-90
2022/08/21 12:37:32;;;;;;;2.72;0.80;;;31.50;48.00;;;;;;5081410;28;20025;-89
2022/08/21 12:40:00;;;;;;;2.95;0.77;;;31.70;47.80;;;;;;5079298;28;20033;-91
2022/08/21 12:42:46;;;;;;;5.32;0.68;;;31.90;47.20;;;;;;5074529;28;20385;-89
2022/08/21 12:45:27;;;;;;;2.95;0.60;;;32.10;46.20;;;;;;5074353;28;20037;-90
2022/08/21 12:48:04;;;;;;;3.55;0.57;;;32.40;46.00;;;;;;5074758;28;20048;-90
2022/08/21 12:50:42;;;;;;;4.45;0.55;;;32.60;45.90;;;;;;5075606;28;20032;-89
2022/08/21 12:53:26;;;;;;;2.30;0.60;;;32.90;45.70;;;;;;5074534;28;20082;-90
2022/08/21 12:55:53;;;;;;;2.95;0.60;;;33.10;44.80;;;;;;5073481;28;20054;-88
2022/08/21 12:58:24;;;;;;;3.85;0.90;;;33.30;45.10;;;;;;5074426;28;20031;-89
2022/08/21 13:00:54;;;;;;;3.72;0.60;;;33.40;44.00;;;;;;5074033;28;20033;-86